Terminal Aerodrome Forecast
Issued by NWS

Home | Current Version | Previous Version | Text Only | Print | Product List | Glossary On
Versions: 1 2 3 4 5 6 7 8 9 10 11 12 13 14 15 16 17
000
FTUS46 KSEW 242115 AAA
TAFCLM
TAF AMD
KCLM 242115Z 2421/2518 33009KT P6SM SCT050 SCT120 BKN200
     FM250100 28009KT P6SM SCT050 BKN120 OVC200
     FM250600 28009KT P6SM FEW013 BKN050 OVC100
     FM251200 VRB03KT P6SM BKN009 OVC050 PROB30 2512/2518 5SM -RA
      OVC009=

USA.gov is the U.S. government's official web portal to all federal, state and local government web resources and services.